Airport ICAO


11:04 UTC

20°C

Broken clouds


An affordable passengers' Moving Map for your aircraft. Made for the iPad and the iPhone
More information here

EGMD Lydd


Lydd UNITED KINGDOM   VFR


METAR EGMD 191050Z 23022KT 9999 BKN011 20/16 Q1020 0h14min

TAF EGMD 190759Z 1909/1918 24017KT 9999 BKN011 TEMPO 1909/1916 23020G30KT PROB40 TEMPO 1909/1916 8000 BKN007 BECMG 1915/1918 SCT020 3h05min





NOTAMS

OPEN